KTZ4416 KSLC-KWMC
Flight info
| Callsign | KTZ4416 |
|---|---|
| Flight time | N/A |
| Altitude | 16000 |
| Route | SLC4 TCH V32 SPATS/N0296F240 |
| Aircraft | AT46/M-SDFGIRY/S |
Departure
| Time | 2026-04-30 05:36 |
|---|---|
| Airport | Salt Lake City International Airport (KSLC) |
Arrival
| Time | N/A |
|---|---|
| Airport | Winnemucca Municipal Airport (KWMC) |
| Time | Latitude | Longitude | Altitude | Speed | Heading |
|---|---|---|---|---|---|
| 2026-04-30 04:55 | 40.78817 | -111.98892 | 4231 ft | 0 kts | 5° |
| 2026-04-30 05:20 | 40.78810 | -111.98893 | 4231 ft | 4 kts | 5° |
| 2026-04-30 05:20 | 40.78783 | -111.98896 | 4231 ft | 4 kts | 357° |
| 2026-04-30 05:20 | 40.78758 | -111.98889 | 4231 ft | 4 kts | 321° |
| 2026-04-30 05:21 | 40.78748 | -111.98869 | 4231 ft | 1 kts | 265° |
| 2026-04-30 05:21 | 40.78749 | -111.98863 | 4231 ft | 0 kts | 265° |
| 2026-04-30 05:24 | 40.78745 | -111.98921 | 4231 ft | 9 kts | 265° |
| 2026-04-30 05:24 | 40.78742 | -111.98941 | 4231 ft | 6 kts | 259° |
| 2026-04-30 05:24 | 40.78739 | -111.98990 | 4231 ft | 4 kts | 270° |
| 2026-04-30 05:25 | 40.78738 | -111.99036 | 4231 ft | 5 kts | 265° |
| 2026-04-30 05:25 | 40.78735 | -111.99089 | 4231 ft | 6 kts | 264° |
| 2026-04-30 05:25 | 40.78731 | -111.99148 | 4231 ft | 7 kts | 264° |
| 2026-04-30 05:25 | 40.78726 | -111.99208 | 4231 ft | 4 kts | 264° |
| 2026-04-30 05:26 | 40.78725 | -111.99270 | 4231 ft | 1 kts | 271° |
| 2026-04-30 05:26 | 40.78724 | -111.99302 | 4231 ft | 5 kts | 264° |
| 2026-04-30 05:26 | 40.78721 | -111.99351 | 4231 ft | 3 kts | 265° |
| 2026-04-30 05:26 | 40.78719 | -111.99389 | 4231 ft | 6 kts | 265° |
| 2026-04-30 05:27 | 40.78714 | -111.99452 | 4231 ft | 13 kts | 255° |
| 2026-04-30 05:27 | 40.78657 | -111.99471 | 4231 ft | 9 kts | 173° |
| 2026-04-30 05:27 | 40.78600 | -111.99460 | 4231 ft | 8 kts | 173° |
| 2026-04-30 05:27 | 40.78546 | -111.99455 | 4231 ft | 7 kts | 177° |
| 2026-04-30 05:28 | 40.78498 | -111.99451 | 4231 ft | 7 kts | 175° |
| 2026-04-30 05:28 | 40.78470 | -111.99447 | 4231 ft | 0 kts | 173° |
| 2026-04-30 05:28 | 40.78468 | -111.99447 | 4231 ft | 4 kts | 173° |
| 2026-04-30 05:28 | 40.78416 | -111.99439 | 4231 ft | 8 kts | 174° |
| 2026-04-30 05:29 | 40.78293 | -111.99429 | 4231 ft | 24 kts | 175° |
| 2026-04-30 05:29 | 40.78181 | -111.99408 | 4231 ft | 11 kts | 173° |
| 2026-04-30 05:29 | 40.78163 | -111.99406 | 4231 ft | 0 kts | 176° |
| 2026-04-30 05:29 | 40.78111 | -111.99406 | 4231 ft | 2 kts | 185° |
| 2026-04-30 05:30 | 40.78074 | -111.99415 | 4231 ft | 6 kts | 194° |
| 2026-04-30 05:30 | 40.78032 | -111.99429 | 4231 ft | 7 kts | 194° |
| 2026-04-30 05:30 | 40.77933 | -111.99434 | 4230 ft | 17 kts | 175° |
| 2026-04-30 05:30 | 40.77793 | -111.99419 | 4231 ft | 15 kts | 175° |
| 2026-04-30 05:31 | 40.77705 | -111.99409 | 4231 ft | 11 kts | 175° |
| 2026-04-30 05:31 | 40.77637 | -111.99402 | 4232 ft | 9 kts | 176° |
| 2026-04-30 05:31 | 40.77579 | -111.99398 | 4231 ft | 8 kts | 176° |
| 2026-04-30 05:31 | 40.77538 | -111.99399 | 4231 ft | 0 kts | 206° |
| 2026-04-30 05:33 | 40.77534 | -111.99404 | 4231 ft | 0 kts | 227° |
| 2026-04-30 05:34 | 40.77517 | -111.99493 | 4232 ft | 8 kts | 284° |
| 2026-04-30 05:34 | 40.77553 | -111.99553 | 4233 ft | 11 kts | 341° |
| 2026-04-30 05:34 | 40.77736 | -111.99576 | 4232 ft | 42 kts | 354° |
| 2026-04-30 05:35 | 40.78120 | -111.99623 | 4229 ft | 68 kts | 354° |
| 2026-04-30 05:35 | 40.78731 | -111.99695 | 4232 ft | 109 kts | 352° |
| 2026-04-30 05:35 | 40.79560 | -111.99765 | 4267 ft | 137 kts | 0° |
| 2026-04-30 05:35 | 40.80607 | -111.99857 | 4818 ft | 163 kts | 0° |
| 2026-04-30 05:36 | 40.81752 | -111.99900 | 5707 ft | 150 kts | 4° |
| 2026-04-30 05:36 | 40.82856 | -111.99965 | 6230 ft | 171 kts | 356° |
| 2026-04-30 05:36 | 40.83950 | -112.00549 | 7071 ft | 172 kts | 320° |
| 2026-04-30 05:36 | 40.84563 | -112.01925 | 7867 ft | 181 kts | 284° |
| 2026-04-30 05:37 | 40.84641 | -112.03634 | 8580 ft | 190 kts | 271° |
| 2026-04-30 05:37 | 40.84598 | -112.05367 | 9459 ft | 189 kts | 269° |
| 2026-04-30 05:37 | 40.84543 | -112.07080 | 10419 ft | 184 kts | 271° |
| 2026-04-30 05:37 | 40.84468 | -112.08727 | 11391 ft | 174 kts | 268° |
| 2026-04-30 05:38 | 40.84390 | -112.10285 | 12358 ft | 166 kts | 269° |
| 2026-04-30 05:38 | 40.84322 | -112.11779 | 13267 ft | 160 kts | 269° |
| 2026-04-30 05:38 | 40.84260 | -112.13217 | 14115 ft | 157 kts | 270° |
| 2026-04-30 05:38 | 40.84146 | -112.14645 | 14797 ft | 158 kts | 264° |
| 2026-04-30 05:39 | 40.83986 | -112.16079 | 15476 ft | 158 kts | 265° |
| 2026-04-30 05:39 | 40.83841 | -112.17550 | 15941 ft | 175 kts | 266° |
| 2026-04-30 05:39 | 40.83705 | -112.19312 | 15970 ft | 209 kts | 268° |
| 2026-04-30 05:39 | 40.83558 | -112.21353 | 15979 ft | 233 kts | 268° |
| 2026-04-30 05:40 | 40.83433 | -112.23552 | 15974 ft | 252 kts | 268° |
| 2026-04-30 05:40 | 40.83296 | -112.25932 | 15967 ft | 265 kts | 267° |
| 2026-04-30 05:40 | 40.83136 | -112.28396 | 15966 ft | 271 kts | 267° |
| 2026-04-30 05:40 | 40.82973 | -112.30895 | 15964 ft | 274 kts | 267° |
| 2026-04-30 05:41 | 40.82809 | -112.33420 | 15963 ft | 277 kts | 267° |
| 2026-04-30 05:41 | 40.82647 | -112.35966 | 15964 ft | 279 kts | 267° |
| 2026-04-30 05:41 | 40.82474 | -112.38520 | 15963 ft | 280 kts | 266° |
| 2026-04-30 05:41 | 40.82305 | -112.41053 | 15964 ft | 280 kts | 267° |
| 2026-04-30 05:42 | 40.82138 | -112.43621 | 15962 ft | 281 kts | 266° |
| 2026-04-30 05:42 | 40.81966 | -112.46193 | 15962 ft | 281 kts | 267° |
| 2026-04-30 05:42 | 40.81791 | -112.48825 | 15967 ft | 286 kts | 266° |
| 2026-04-30 05:42 | 40.81603 | -112.51429 | 15963 ft | 284 kts | 266° |
| 2026-04-30 05:43 | 40.81413 | -112.54025 | 15955 ft | 284 kts | 266° |
| 2026-04-30 05:43 | 40.81234 | -112.56617 | 15950 ft | 283 kts | 266° |
| 2026-04-30 05:43 | 40.81062 | -112.59204 | 15947 ft | 283 kts | 266° |
| 2026-04-30 05:43 | 40.80893 | -112.61780 | 15945 ft | 283 kts | 266° |
| 2026-04-30 05:44 | 40.80723 | -112.64340 | 15939 ft | 282 kts | 266° |
| 2026-04-30 05:44 | 40.80548 | -112.66922 | 15937 ft | 282 kts | 266° |
| 2026-04-30 05:44 | 40.80371 | -112.69497 | 15935 ft | 282 kts | 266° |
| 2026-04-30 05:44 | 40.80193 | -112.72088 | 15932 ft | 282 kts | 266° |
| 2026-04-30 05:45 | 40.80015 | -112.74674 | 15923 ft | 282 kts | 266° |
| 2026-04-30 05:45 | 40.79840 | -112.77223 | 15924 ft | 282 kts | 266° |
| 2026-04-30 05:45 | 40.79661 | -112.79814 | 15919 ft | 282 kts | 266° |
| 2026-04-30 05:45 | 40.79483 | -112.82393 | 15922 ft | 282 kts | 266° |
| 2026-04-30 05:46 | 40.79303 | -112.84977 | 15923 ft | 282 kts | 266° |
| 2026-04-30 05:46 | 40.79126 | -112.87518 | 15920 ft | 282 kts | 266° |
| 2026-04-30 05:46 | 40.78943 | -112.90097 | 15925 ft | 282 kts | 266° |
| 2026-04-30 05:46 | 40.78758 | -112.92675 | 15931 ft | 282 kts | 266° |
| 2026-04-30 05:47 | 40.78573 | -112.95257 | 15928 ft | 282 kts | 266° |
| 2026-04-30 05:47 | 40.78389 | -112.97842 | 15926 ft | 282 kts | 266° |
| 2026-04-30 05:47 | 40.78205 | -113.00426 | 15923 ft | 282 kts | 266° |
| 2026-04-30 05:47 | 40.78022 | -113.03009 | 15925 ft | 282 kts | 266° |
| 2026-04-30 05:48 | 40.77843 | -113.05547 | 15928 ft | 282 kts | 266° |
| 2026-04-30 05:48 | 40.77660 | -113.08130 | 15926 ft | 282 kts | 266° |
| 2026-04-30 05:48 | 40.77476 | -113.10711 | 15925 ft | 282 kts | 266° |
| 2026-04-30 05:48 | 40.77292 | -113.13292 | 15926 ft | 282 kts | 266° |
| 2026-04-30 05:49 | 40.77104 | -113.15869 | 15929 ft | 282 kts | 266° |
| 2026-04-30 05:49 | 40.76915 | -113.18453 | 15927 ft | 283 kts | 266° |
| 2026-04-30 05:49 | 40.76722 | -113.21032 | 15928 ft | 282 kts | 266° |
| 2026-04-30 05:49 | 40.76535 | -113.23613 | 15926 ft | 282 kts | 266° |
| 2026-04-30 05:50 | 40.76350 | -113.26194 | 15928 ft | 282 kts | 266° |
| 2026-04-30 05:50 | 40.76155 | -113.28771 | 15930 ft | 282 kts | 266° |
| 2026-04-30 05:50 | 40.75968 | -113.31318 | 15932 ft | 282 kts | 266° |
| 2026-04-30 05:50 | 40.75777 | -113.33905 | 15933 ft | 282 kts | 266° |
| 2026-04-30 05:51 | 40.75582 | -113.36485 | 15934 ft | 282 kts | 266° |
| 2026-04-30 05:51 | 40.75393 | -113.39065 | 15932 ft | 283 kts | 266° |
| 2026-04-30 05:51 | 40.75196 | -113.41650 | 15937 ft | 283 kts | 266° |
| 2026-04-30 05:51 | 40.74991 | -113.44226 | 15941 ft | 282 kts | 265° |
| 2026-04-30 05:52 | 40.74793 | -113.46800 | 15940 ft | 283 kts | 265° |
| 2026-04-30 05:52 | 40.74597 | -113.49386 | 15943 ft | 283 kts | 266° |
| 2026-04-30 05:52 | 40.74405 | -113.51932 | 15943 ft | 283 kts | 266° |
| 2026-04-30 05:52 | 40.74203 | -113.54514 | 15946 ft | 283 kts | 265° |
| 2026-04-30 05:53 | 40.74010 | -113.57098 | 15952 ft | 283 kts | 266° |
| 2026-04-30 05:53 | 40.73816 | -113.59680 | 15955 ft | 283 kts | 266° |
| 2026-04-30 05:53 | 40.73619 | -113.62262 | 15966 ft | 283 kts | 266° |
| 2026-04-30 05:53 | 40.73422 | -113.64841 | 15973 ft | 283 kts | 266° |
| 2026-04-30 05:54 | 40.73224 | -113.67426 | 15982 ft | 283 kts | 266° |
| 2026-04-30 05:54 | 40.73024 | -113.70004 | 15987 ft | 282 kts | 266° |
| 2026-04-30 05:54 | 40.72826 | -113.72556 | 15996 ft | 282 kts | 266° |
| 2026-04-30 05:54 | 40.72626 | -113.75129 | 16001 ft | 282 kts | 265° |
| 2026-04-30 05:55 | 40.72519 | -113.77698 | 16004 ft | 280 kts | 272° |
| 2026-04-30 05:55 | 40.72629 | -113.80265 | 16012 ft | 281 kts | 276° |
| 2026-04-30 05:55 | 40.72769 | -113.82840 | 16017 ft | 281 kts | 275° |
| 2026-04-30 05:55 | 40.72874 | -113.85413 | 16022 ft | 281 kts | 274° |
| 2026-04-30 05:56 | 40.72939 | -113.87990 | 16025 ft | 281 kts | 273° |
| 2026-04-30 05:56 | 40.73000 | -113.90563 | 16029 ft | 281 kts | 273° |
| 2026-04-30 05:56 | 40.73064 | -113.93118 | 16032 ft | 281 kts | 273° |
| 2026-04-30 05:56 | 40.73120 | -113.95694 | 16031 ft | 281 kts | 273° |
| 2026-04-30 05:57 | 40.73183 | -113.98275 | 16032 ft | 281 kts | 273° |
| 2026-04-30 05:57 | 40.73246 | -114.00851 | 16031 ft | 281 kts | 273° |
| 2026-04-30 05:57 | 40.73301 | -114.03396 | 16032 ft | 281 kts | 273° |
| 2026-04-30 05:57 | 40.73347 | -114.05968 | 16029 ft | 281 kts | 272° |
| 2026-04-30 05:58 | 40.73391 | -114.08545 | 16029 ft | 281 kts | 272° |
| 2026-04-30 05:58 | 40.73429 | -114.11122 | 16027 ft | 280 kts | 273° |
| 2026-04-30 05:58 | 40.73483 | -114.13699 | 16032 ft | 280 kts | 273° |
| 2026-04-30 05:58 | 40.73540 | -114.16276 | 16031 ft | 280 kts | 273° |
| 2026-04-30 05:59 | 40.73596 | -114.18815 | 16026 ft | 281 kts | 273° |
| 2026-04-30 05:59 | 40.73650 | -114.21391 | 16026 ft | 280 kts | 273° |
| 2026-04-30 05:59 | 40.73707 | -114.23954 | 16025 ft | 280 kts | 273° |
| 2026-04-30 05:59 | 40.73783 | -114.26481 | 16014 ft | 273 kts | 274° |
| 2026-04-30 06:00 | 40.73859 | -114.28926 | 16015 ft | 271 kts | 273° |
| 2026-04-30 06:00 | 40.73917 | -114.31453 | 16012 ft | 277 kts | 273° |
| 2026-04-30 06:00 | 40.73966 | -114.34003 | 16013 ft | 280 kts | 272° |
| 2026-04-30 06:00 | 40.73967 | -114.34074 | 16009 ft | 280 kts | 272° |
| 2026-04-30 06:01 | 40.73993 | -114.36203 | 16008 ft | 275 kts | 273° |
| 2026-04-30 06:01 | 40.74049 | -114.38758 | 16012 ft | 284 kts | 274° |
| 2026-04-30 06:02 | 40.73828 | -114.40747 | 15807 ft | 185 kts | 226° |
| 2026-04-30 06:02 | 40.73221 | -114.42252 | 15954 ft | 186 kts | 264° |
| 2026-04-30 06:02 | 40.73146 | -114.43973 | 16309 ft | 198 kts | 270° |
| 2026-04-30 06:02 | 40.73269 | -114.45899 | 16095 ft | 224 kts | 291° |
| 2026-04-30 06:03 | 40.73738 | -114.47540 | 15946 ft | 68 kts | 306° |
| 2026-04-30 06:03 | 40.74115 | -114.48147 | 11974 ft | 0 kts | 332° |